createdAt,value
2022-08-16T00:03:46.976Z,5.57
2022-08-16T00:08:52.422Z,5.68
2022-08-16T00:13:56.370Z,10.27
2022-08-16T00:19:01.662Z,6.28
2022-08-16T00:24:06.212Z,6.13
2022-08-16T00:29:17.937Z,5.97
2022-08-16T00:34:44.726Z,6.40
2022-08-16T00:39:57.631Z,6.32
2022-08-16T00:45:06.486Z,6.13
2022-08-16T00:50:13.780Z,7.40
2022-08-16T00:55:17.599Z,6.35
2022-08-16T01:00:25.079Z,6.82
2022-08-16T01:05:32.936Z,6.13
2022-08-16T01:10:38.098Z,6.82
2022-08-16T01:15:46.159Z,6.45
2022-08-16T01:20:59.208Z,6.57
2022-08-16T01:26:34.746Z,6.85
2022-08-16T01:31:30.934Z,7.43
2022-08-16T01:36:35.821Z,7.45
2022-08-16T01:41:41.951Z,7.15
2022-08-16T01:46:48.438Z,6.60
2022-08-16T01:51:58.735Z,6.53
2022-08-16T01:57:05.350Z,6.13
2022-08-16T02:02:27.087Z,6.28
2022-08-16T02:07:31.986Z,7.57
2022-08-16T02:12:43.600Z,7.00
2022-08-16T02:17:55.115Z,7.22
2022-08-16T02:22:59.717Z,7.88
2022-08-16T02:28:06.867Z,6.68
2022-08-16T02:33:15.425Z,6.30
2022-08-16T02:38:19.536Z,7.35
2022-08-16T02:43:26.799Z,7.43
2022-08-16T02:48:31.565Z,8.23
2022-08-16T02:53:36.432Z,7.68
2022-08-16T02:58:41.609Z,8.07
2022-08-16T03:04:46.472Z,6.60
2022-08-16T03:09:14.750Z,7.95
2022-08-16T03:14:24.845Z,6.90
2022-08-16T03:19:48.628Z,7.68
2022-08-16T03:24:52.687Z,7.45
2022-08-16T03:29:57.638Z,6.90
2022-08-16T03:35:01.021Z,7.50
2022-08-16T03:40:10.299Z,7.18
2022-08-16T03:45:35.173Z,8.30
2022-08-16T03:50:39.599Z,7.80
2022-08-16T03:55:45.671Z,7.25
2022-08-16T04:00:59.249Z,8.05
2022-08-16T04:06:03.127Z,7.80
2022-08-16T04:11:06.788Z,8.32
2022-08-16T04:16:27.700Z,7.78
2022-08-16T04:21:32.580Z,8.40
2022-08-16T04:26:36.906Z,7.43
2022-08-16T04:31:56.740Z,8.38
2022-08-16T04:37:02.292Z,7.80
2022-08-16T04:42:11.245Z,8.07
2022-08-16T04:47:23.804Z,8.50
2022-08-16T04:52:34.009Z,8.52
2022-08-16T04:57:39.230Z,8.15
2022-08-16T05:02:47.383Z,7.82
2022-08-16T05:08:00.223Z,7.82
2022-08-16T05:13:05.717Z,8.95
2022-08-16T05:18:16.187Z,8.65
2022-08-16T05:23:20.051Z,9.57
2022-08-16T05:28:37.394Z,8.07
2022-08-16T05:33:42.669Z,9.32
2022-08-16T05:38:46.440Z,9.95
2022-08-16T05:43:50.031Z,9.90
2022-08-16T05:49:00.119Z,10.40
2022-08-16T05:54:09.746Z,10.00
2022-08-16T05:59:16.340Z,10.60
2022-08-16T06:04:36.418Z,10.13
2022-08-16T06:09:43.335Z,10.05
2022-08-16T06:14:47.647Z,9.73
2022-08-16T06:19:56.265Z,8.35
2022-08-16T06:24:59.687Z,8.32
2022-08-16T06:30:04.091Z,8.05
2022-08-16T06:35:11.745Z,7.53
2022-08-16T06:40:15.974Z,7.80
2022-08-16T06:45:21.361Z,8.27
2022-08-16T06:50:29.872Z,7.95
2022-08-16T06:55:35.119Z,6.93
2022-08-16T07:00:43.072Z,6.32
2022-08-16T07:05:48.005Z,6.55
2022-08-16T07:10:53.267Z,7.00
2022-08-16T07:15:57.005Z,6.13
2022-08-16T07:21:02.403Z,6.13
2022-08-16T07:26:07.336Z,6.38
2022-08-16T07:31:12.998Z,6.72
2022-08-16T07:36:22.143Z,5.97
2022-08-16T07:41:25.758Z,6.63
2022-08-16T07:46:39.214Z,5.57
2022-08-16T07:51:45.274Z,5.72
2022-08-16T07:56:50.031Z,6.93
2022-08-16T08:01:55.165Z,6.60
2022-08-16T08:07:00.883Z,6.90
2022-08-16T08:12:07.473Z,7.10
2022-08-16T08:17:42.769Z,7.32
2022-08-16T08:22:49.436Z,6.47
2022-08-16T08:27:57.715Z,7.28
2022-08-16T08:33:01.685Z,7.05
2022-08-16T08:38:08.358Z,7.13
2022-08-16T08:43:17.956Z,6.53
2022-08-16T08:48:33.771Z,6.38
2022-08-16T08:53:39.986Z,6.05
2022-08-16T08:58:54.728Z,6.03
2022-08-16T09:04:04.605Z,5.55
2022-08-16T09:09:17.157Z,5.25
2022-08-16T09:14:24.680Z,5.78
2022-08-16T09:19:32.866Z,5.13
2022-08-16T09:24:51.598Z,5.50
2022-08-16T09:30:00.538Z,5.32
2022-08-16T09:35:05.510Z,5.63
2022-08-16T09:40:32.492Z,6.30
2022-08-16T09:45:39.185Z,5.97
2022-08-16T09:50:45.616Z,7.05
2022-08-16T09:55:53.841Z,6.28
2022-08-16T10:01:00.927Z,7.00
2022-08-16T10:06:04.547Z,7.15
2022-08-16T10:11:26.852Z,6.80
2022-08-16T10:16:32.753Z,6.60
2022-08-16T10:21:36.120Z,6.28
2022-08-16T10:27:20.321Z,6.95
2022-08-16T10:32:06.309Z,7.72
2022-08-16T10:37:10.031Z,7.57
2022-08-16T10:42:14.734Z,6.43
2022-08-16T10:47:18.126Z,6.43
2022-08-16T10:52:24.432Z,7.07
2022-08-16T10:57:32.951Z,6.97
2022-08-16T11:03:37.855Z,6.00
2022-08-16T11:08:00.547Z,6.90
2022-08-16T11:19:03.144Z,6.28
2022-08-16T11:23:59.839Z,5.85
2022-08-16T11:29:13.217Z,6.10
2022-08-16T11:34:19.710Z,5.93
2022-08-16T11:39:24.652Z,5.60
2022-08-16T11:44:52.938Z,5.88
2022-08-16T11:49:53.146Z,5.70
2022-08-16T11:55:00.115Z,5.95
2022-08-16T12:00:10.429Z,5.20
2022-08-16T12:05:33.864Z,4.88
2022-08-16T12:10:39.692Z,4.20
2022-08-16T12:15:44.704Z,4.43
2022-08-16T12:20:51.899Z,5.25
2022-08-16T12:25:59.101Z,4.82
2022-08-16T12:31:04.765Z,4.60
2022-08-16T12:36:12.936Z,5.30
2022-08-16T12:41:24.332Z,4.53
2022-08-16T12:46:30.886Z,4.55
2022-08-16T12:51:59.546Z,4.43
2022-08-16T12:57:01.511Z,4.80
2022-08-16T13:02:06.949Z,4.38
2022-08-16T13:07:17.777Z,4.10
2022-08-16T13:12:24.945Z,4.28
2022-08-16T13:17:30.424Z,4.40
2022-08-16T13:22:34.622Z,4.43
2022-08-16T13:28:03.243Z,4.38
2022-08-16T13:33:11.334Z,4.00
2022-08-16T13:38:24.767Z,3.92
2022-08-16T13:43:32.488Z,3.35
2022-08-16T13:48:44.164Z,3.88
2022-08-16T13:53:59.749Z,4.15
2022-08-16T13:59:13.985Z,4.25
2022-08-16T14:04:27.693Z,4.10
2022-08-16T14:09:32.519Z,4.22
2022-08-16T14:14:36.327Z,3.90
2022-08-16T14:19:44.781Z,4.07
2022-08-16T14:24:51.401Z,3.92
2022-08-16T14:29:55.766Z,3.90
2022-08-16T14:35:02.027Z,3.40
2022-08-16T14:40:06.751Z,3.50
2022-08-16T14:45:13.754Z,3.78
2022-08-16T14:50:22.758Z,3.70
2022-08-16T15:00:34.666Z,3.17
2022-08-16T15:05:42.961Z,3.40
2022-08-16T15:10:46.483Z,3.25
2022-08-16T15:15:58.825Z,3.30
2022-08-16T15:21:06.385Z,3.17
2022-08-16T15:26:13.674Z,3.30
2022-08-16T15:31:35.527Z,3.10
2022-08-16T15:36:41.089Z,2.95
2022-08-16T15:42:03.855Z,3.20
2022-08-16T15:47:10.356Z,3.30
2022-08-16T15:52:20.596Z,3.20
2022-08-16T15:57:26.362Z,3.17
2022-08-16T16:02:31.377Z,3.13
2022-08-16T16:07:37.529Z,3.00
2022-08-16T16:12:51.390Z,2.97
2022-08-16T16:17:58.605Z,3.83
2022-08-16T16:23:10.182Z,2.88
2022-08-16T16:29:06.612Z,2.92
2022-08-16T16:33:43.525Z,3.10
2022-08-16T16:38:49.074Z,3.03
2022-08-16T16:43:54.910Z,2.95
2022-08-16T16:49:00.005Z,3.38
2022-08-16T16:54:04.927Z,3.25
2022-08-16T16:59:11.479Z,3.28
2022-08-16T17:04:19.588Z,3.15
2022-08-16T17:09:26.844Z,3.10
2022-08-16T17:14:33.477Z,3.10
2022-08-16T17:19:41.142Z,3.17
2022-08-16T17:24:50.506Z,3.38
2022-08-16T17:29:55.617Z,3.28
2022-08-16T17:35:03.048Z,3.65
2022-08-16T17:40:36.067Z,3.30
2022-08-16T17:45:37.835Z,3.28
2022-08-16T17:50:43.229Z,3.20
2022-08-16T17:55:50.602Z,4.00
2022-08-16T18:00:57.841Z,3.60
2022-08-16T18:06:01.428Z,3.13
2022-08-16T18:11:06.697Z,4.38
2022-08-16T18:16:11.842Z,3.55
2022-08-16T18:21:34.085Z,3.83
2022-08-16T18:26:39.960Z,3.42
2022-08-16T18:31:43.582Z,3.78
2022-08-16T18:36:47.275Z,3.50
2022-08-16T18:41:51.946Z,4.60
2022-08-16T18:46:55.601Z,4.10
2022-08-16T18:51:59.730Z,4.50
2022-08-16T18:57:07.976Z,4.03
2022-08-16T19:02:43.118Z,4.20
2022-08-16T19:07:35.163Z,4.00
2022-08-16T19:12:41.938Z,4.82
2022-08-16T19:17:47.021Z,5.07
2022-08-16T19:23:05.687Z,4.63
2022-08-16T19:28:46.695Z,5.85
2022-08-16T19:33:37.009Z,4.53
2022-08-16T19:38:40.809Z,4.65
2022-08-16T19:43:46.592Z,5.20
2022-08-16T19:48:50.025Z,5.68
2022-08-16T19:53:53.417Z,5.47
2022-08-16T20:04:22.228Z,5.03
2022-08-16T20:09:26.294Z,5.80
2022-08-16T20:14:31.228Z,4.95
2022-08-16T20:19:39.959Z,4.93
2022-08-16T20:24:44.484Z,5.10
2022-08-16T20:29:50.646Z,5.50
2022-08-16T20:34:55.956Z,5.40
2022-08-16T20:40:28.175Z,5.63
2022-08-16T20:45:26.926Z,5.38
2022-08-16T20:50:30.664Z,5.20
2022-08-16T20:55:36.000Z,6.05
2022-08-16T21:00:41.288Z,5.07
2022-08-16T21:05:46.614Z,6.28
2022-08-16T21:10:50.440Z,6.00
2022-08-16T21:15:55.145Z,5.40
2022-08-16T21:20:58.531Z,5.15
2022-08-16T21:26:01.890Z,6.05
2022-08-16T21:31:12.907Z,6.00
2022-08-16T21:36:16.699Z,6.43
2022-08-16T21:46:43.888Z,6.50
2022-08-16T21:51:47.410Z,5.85
2022-08-16T21:56:51.158Z,6.82
2022-08-16T22:01:56.235Z,6.50
2022-08-16T22:06:59.602Z,6.10
2022-08-16T22:12:03.546Z,6.05
2022-08-16T22:17:08.857Z,6.15
2022-08-16T22:22:13.057Z,5.82
2022-08-16T22:27:16.442Z,5.95
2022-08-16T22:32:22.011Z,7.18
2022-08-16T22:37:25.675Z,6.65
2022-08-16T22:42:30.921Z,6.70
2022-08-16T22:47:35.664Z,6.60
2022-08-16T22:52:58.261Z,7.70
2022-08-16T22:58:01.711Z,10.38
2022-08-16T23:03:09.343Z,6.63
2022-08-16T23:08:15.370Z,8.00
2022-08-16T23:13:36.305Z,7.65
2022-08-16T23:18:41.986Z,6.65
2022-08-16T23:23:46.561Z,7.75
2022-08-16T23:28:50.497Z,8.85
2022-08-16T23:33:55.398Z,6.95
2022-08-16T23:38:59.427Z,7.05
2022-08-16T23:44:02.864Z,6.97
2022-08-16T23:49:56.900Z,6.82
2022-08-16T23:54:52.622Z,8.07
2022-08-16T23:59:56.002Z,9.13
